createdAt,value
2022-12-03T00:04:58.463Z,99131.27
2022-12-03T00:10:06.273Z,99133.73
2022-12-03T00:15:14.371Z,99130.18
2022-12-03T00:20:22.144Z,99126.17
2022-12-03T00:25:29.096Z,99131.58
2022-12-03T00:30:35.992Z,99128.98
2022-12-03T00:35:42.973Z,99130.23
2022-12-03T00:40:49.633Z,99119.33
2022-12-03T00:45:56.675Z,99115.31
2022-12-03T00:51:03.564Z,99113.38
2022-12-03T00:56:11.261Z,99112.16
2022-12-03T01:01:17.998Z,99107.52
2022-12-03T01:06:24.943Z,99098.02
2022-12-03T01:11:41.669Z,99103.97
2022-12-03T01:16:49.058Z,99100.73
2022-12-03T01:21:55.996Z,99106.02
2022-12-03T01:27:03.155Z,99099.95
2022-12-03T01:32:20.101Z,99102.81
2022-12-03T01:37:27.773Z,99096.77
2022-12-03T01:42:36.204Z,99096.55
2022-12-03T01:47:43.143Z,99092.70
2022-12-03T01:52:49.845Z,99087.41
2022-12-03T01:57:58.263Z,99092.70
2022-12-03T02:03:09.325Z,99099.30
2022-12-03T02:08:32.696Z,99096.95
2022-12-03T02:13:40.216Z,99088.21
2022-12-03T02:18:47.724Z,99090.09
2022-12-03T02:24:00.148Z,99090.12
2022-12-03T02:29:07.463Z,99095.67
2022-12-03T02:34:27.597Z,99105.77
2022-12-03T02:39:35.178Z,99103.67
2022-12-03T02:44:41.987Z,99107.89
2022-12-03T02:49:48.947Z,99105.65
2022-12-03T02:54:56.471Z,99103.38
2022-12-03T03:00:03.597Z,99089.80
2022-12-03T03:05:12.387Z,99086.10
2022-12-03T03:10:21.055Z,99091.66
2022-12-03T03:15:28.136Z,99092.95
2022-12-03T03:20:34.966Z,99095.95
2022-12-03T03:25:43.130Z,99093.73
2022-12-03T03:30:49.988Z,99095.46
2022-12-03T03:35:57.047Z,99098.54
2022-12-03T03:41:05.541Z,99094.64
2022-12-03T03:46:13.148Z,99092.20
2022-12-03T03:51:20.827Z,99087.23
2022-12-03T03:56:27.880Z,99083.52
2022-12-03T04:01:35.105Z,99088.40
2022-12-03T04:06:42.162Z,99084.71
2022-12-03T04:12:07.207Z,99085.30
2022-12-03T04:17:14.717Z,99089.73
2022-12-03T04:22:39.726Z,99092.64
2022-12-03T04:28:04.237Z,99085.77
2022-12-03T04:33:28.887Z,99091.77
2022-12-03T04:38:35.995Z,99090.55
2022-12-03T04:43:56.867Z,99089.98
2022-12-03T04:49:03.898Z,99091.45
2022-12-03T04:54:11.037Z,99091.40
2022-12-03T04:59:17.908Z,99094.02
2022-12-03T05:04:25.118Z,99082.41
2022-12-03T05:09:32.111Z,99074.94
2022-12-03T05:14:39.505Z,99076.52
2022-12-03T05:20:09.395Z,99073.58
2022-12-03T05:25:16.767Z,99073.33
2022-12-03T05:30:24.184Z,99072.78
2022-12-03T05:35:30.970Z,99069.31
2022-12-03T05:40:37.807Z,99063.59
2022-12-03T05:45:45.539Z,99064.89
2022-12-03T05:50:52.656Z,99072.73
2022-12-03T05:55:59.798Z,99076.31
2022-12-03T06:01:06.594Z,99082.48
2022-12-03T06:06:13.544Z,99081.73
2022-12-03T06:11:20.277Z,99072.55
2022-12-03T06:16:27.446Z,99075.95
2022-12-03T06:21:34.561Z,99080.00
2022-12-03T06:26:41.287Z,99082.67
2022-12-03T06:31:48.487Z,99084.42
2022-12-03T06:36:55.692Z,99089.25
2022-12-03T06:42:02.752Z,99092.46
2022-12-03T06:47:09.758Z,99103.73
2022-12-03T06:52:16.744Z,99108.50
2022-12-03T06:57:23.699Z,99101.13
2022-12-03T07:02:30.899Z,99113.81
2022-12-03T07:07:38.158Z,99115.77
2022-12-03T07:12:45.436Z,99118.42
2022-12-03T07:17:52.309Z,99113.86
2022-12-03T07:22:59.292Z,99109.73
2022-12-03T07:28:06.487Z,99111.27
2022-12-03T07:33:13.555Z,99117.19
2022-12-03T07:38:20.347Z,99123.95
2022-12-03T07:43:27.318Z,99123.36
2022-12-03T07:48:34.188Z,99124.96
2022-12-03T07:53:41.197Z,99119.50
2022-12-03T07:58:48.238Z,99111.93
2022-12-03T08:03:55.358Z,99107.77
2022-12-03T08:09:02.172Z,99111.91
2022-12-03T08:14:13.297Z,99108.08
2022-12-03T08:19:20.133Z,99106.55
2022-12-03T08:24:26.957Z,99107.06
2022-12-03T08:29:34.305Z,99104.45
2022-12-03T08:34:42.654Z,99100.77
2022-12-03T08:39:50.957Z,99102.73
2022-12-03T08:44:58.746Z,99097.92
2022-12-03T08:50:16.189Z,99110.21
2022-12-03T08:55:34.318Z,99114.45
2022-12-03T09:00:41.982Z,99121.84
2022-12-03T09:05:49.028Z,99121.30
2022-12-03T09:10:56.060Z,99120.09
2022-12-03T09:16:03.349Z,99117.55
2022-12-03T09:21:10.859Z,99114.81
2022-12-03T09:26:17.868Z,99118.89
2022-12-03T09:31:25.217Z,99122.77
2022-12-03T09:36:32.800Z,99129.77
2022-12-03T09:41:39.847Z,99123.88
2022-12-03T09:46:47.916Z,99123.61
2022-12-03T09:51:57.259Z,99128.71
2022-12-03T09:57:05.996Z,99126.55
2022-12-03T10:02:21.987Z,99117.38
2022-12-03T10:07:29.135Z,99119.05
2022-12-03T10:12:36.496Z,99117.47
2022-12-03T10:17:43.408Z,99113.16
2022-12-03T10:22:50.507Z,99110.80
2022-12-03T10:28:01.267Z,99100.58
2022-12-03T10:33:18.790Z,99102.66
2022-12-03T10:38:26.967Z,99101.54
2022-12-03T10:43:33.747Z,99106.43
2022-12-03T10:48:40.851Z,99093.70
2022-12-03T10:53:47.799Z,99094.16
2022-12-03T10:58:54.599Z,99089.61
2022-12-03T11:04:04.245Z,99087.85
2022-12-03T11:09:17.899Z,99080.81
2022-12-03T11:14:41.797Z,99078.17
2022-12-03T11:19:50.047Z,99081.54
2022-12-03T11:25:10.285Z,99081.48
2022-12-03T11:30:37.859Z,99083.04
2022-12-03T11:36:04.150Z,99076.30
2022-12-03T11:41:11.418Z,99075.98
2022-12-03T11:46:18.644Z,99078.08
2022-12-03T11:51:26.308Z,99064.04
2022-12-03T11:56:33.416Z,99063.77
2022-12-03T12:01:41.147Z,99059.04
2022-12-03T12:06:53.161Z,99051.17
2022-12-03T12:12:19.457Z,99041.30
2022-12-03T12:17:33.356Z,99035.38
2022-12-03T12:22:40.247Z,99033.57
2022-12-03T12:27:49.828Z,99034.63
2022-12-03T12:33:04.110Z,99034.27
2022-12-03T12:38:17.431Z,99038.48
2022-12-03T12:43:25.949Z,99031.17
2022-12-03T12:48:33.840Z,99030.61
2022-12-03T12:53:43.240Z,99021.48
2022-12-03T12:58:50.477Z,99019.55
2022-12-03T13:03:58.808Z,99018.19
2022-12-03T13:09:06.058Z,99023.46
2022-12-03T13:14:18.108Z,99024.61
2022-12-03T13:19:26.709Z,99025.77
2022-12-03T13:24:34.967Z,99038.27
2022-12-03T13:29:42.097Z,99038.52
2022-12-03T13:34:50.918Z,99036.46
2022-12-03T13:39:59.397Z,99039.44
2022-12-03T13:45:08.588Z,99043.15
2022-12-03T13:50:22.078Z,99035.95
2022-12-03T13:55:31.356Z,99033.11
2022-12-03T14:00:38.680Z,99040.92
2022-12-03T14:05:45.904Z,99032.23
2022-12-03T14:10:58.617Z,99028.82
2022-12-03T14:16:07.707Z,99027.47
2022-12-03T14:21:14.667Z,99023.48
2022-12-03T14:26:21.737Z,99017.52
2022-12-03T14:31:28.823Z,99022.59
2022-12-03T14:36:35.457Z,99015.06
2022-12-03T14:42:00.037Z,99019.63
2022-12-03T14:47:07.057Z,99022.48
2022-12-03T14:52:14.245Z,99027.84
2022-12-03T14:57:21.647Z,99031.70
2022-12-03T15:02:29.227Z,99031.80
2022-12-03T15:07:36.272Z,99033.42
2022-12-03T15:12:43.166Z,99041.96
2022-12-03T15:17:50.237Z,99040.13
2022-12-03T15:22:57.256Z,99037.27
2022-12-03T15:28:05.706Z,99038.14
2022-12-03T15:33:12.998Z,99043.56
2022-12-03T15:38:19.737Z,99047.13
2022-12-03T15:43:26.968Z,99044.61
2022-12-03T15:48:34.637Z,99047.70
2022-12-03T15:53:41.807Z,99046.98
2022-12-03T15:58:48.811Z,99047.83
2022-12-03T16:03:55.617Z,99037.14
2022-12-03T16:09:02.199Z,99038.78
2022-12-03T16:14:09.235Z,99044.84
2022-12-03T16:19:16.008Z,99040.33
2022-12-03T16:24:23.097Z,99035.58
2022-12-03T16:29:30.578Z,99038.02
2022-12-03T16:34:37.808Z,99031.23
2022-12-03T16:39:45.137Z,99028.16
2022-12-03T16:45:10.268Z,99029.86
2022-12-03T16:50:24.465Z,99030.94
2022-12-03T16:55:36.458Z,99026.61
2022-12-03T17:00:43.808Z,99025.14
2022-12-03T17:05:51.368Z,99024.56
2022-12-03T17:10:58.725Z,99021.89
2022-12-03T17:16:07.189Z,99023.42
2022-12-03T17:21:14.470Z,99026.70
2022-12-03T17:26:21.647Z,99019.95
2022-12-03T17:31:28.617Z,99021.14
2022-12-03T17:36:35.488Z,99009.82
2022-12-03T17:41:42.367Z,99008.79
2022-12-03T17:46:49.407Z,98996.86
2022-12-03T17:51:56.498Z,98992.47
2022-12-03T17:57:03.677Z,98990.66
2022-12-03T18:02:10.823Z,98992.54
2022-12-03T18:07:17.798Z,98987.77
2022-12-03T18:12:24.689Z,98986.76
2022-12-03T18:17:31.837Z,98990.91
2022-12-03T18:22:38.627Z,98988.06
2022-12-03T18:27:45.288Z,98983.54
2022-12-03T18:32:52.117Z,98982.41
2022-12-03T18:37:59.365Z,98974.69
2022-12-03T18:43:07.738Z,98980.77
2022-12-03T18:48:15.359Z,98978.64
2022-12-03T18:53:22.098Z,98972.46
2022-12-03T18:58:29.447Z,98972.22
2022-12-03T19:03:37.298Z,98969.63
2022-12-03T19:08:44.577Z,98965.73
2022-12-03T19:13:51.639Z,98963.42
2022-12-03T19:18:58.448Z,98969.80
2022-12-03T19:29:33.731Z,98979.84
2022-12-03T19:34:41.149Z,98982.27
2022-12-03T19:39:47.954Z,98980.34
2022-12-03T19:44:55.068Z,98975.83
2022-12-03T19:50:02.139Z,98972.10
2022-12-03T19:55:10.037Z,98979.09
2022-12-03T20:00:17.589Z,98979.45
2022-12-03T20:05:26.817Z,98979.94
2022-12-03T20:10:37.537Z,98978.17
2022-12-03T20:15:44.737Z,98978.16
2022-12-03T20:20:51.646Z,98978.80
2022-12-03T20:25:58.746Z,98974.84
2022-12-03T20:31:07.648Z,98966.72
2022-12-03T20:36:16.878Z,98965.44
2022-12-03T20:41:23.989Z,98971.38
2022-12-03T20:46:31.745Z,98967.96
2022-12-03T20:51:38.577Z,98967.70
2022-12-03T20:56:45.587Z,98964.49
2022-12-03T21:01:52.658Z,98963.20
2022-12-03T21:06:59.612Z,98962.63
2022-12-03T21:12:06.778Z,98971.61
2022-12-03T21:17:13.782Z,98969.13
2022-12-03T21:22:20.728Z,98973.04
2022-12-03T21:27:27.646Z,98980.48
2022-12-03T21:32:34.438Z,98978.34
2022-12-03T21:37:41.308Z,98971.17
2022-12-03T21:42:48.500Z,98971.30
2022-12-03T21:47:55.610Z,98972.95
2022-12-03T21:53:03.028Z,98976.30
2022-12-03T21:58:10.609Z,98974.37
2022-12-03T22:03:17.981Z,98970.35
2022-12-03T22:08:25.169Z,98962.83
2022-12-03T22:13:32.078Z,98965.97
2022-12-03T22:18:39.037Z,98959.36
2022-12-03T22:23:46.187Z,98960.85
2022-12-03T22:28:53.368Z,98953.63
2022-12-03T22:34:00.272Z,98952.15
2022-12-03T22:39:06.991Z,98950.54
2022-12-03T22:44:14.177Z,98948.04
2022-12-03T22:49:21.549Z,98941.36
2022-12-03T22:54:28.908Z,98938.08
2022-12-03T22:59:35.716Z,98936.94
2022-12-03T23:04:42.750Z,98933.41
2022-12-03T23:09:49.661Z,98932.60
2022-12-03T23:14:56.867Z,98933.88
2022-12-03T23:20:03.997Z,98921.48
2022-12-03T23:25:11.758Z,98918.37
2022-12-03T23:30:18.808Z,98919.04
2022-12-03T23:35:25.667Z,98917.98
2022-12-03T23:40:33.026Z,98913.77
2022-12-03T23:45:40.138Z,98908.65
2022-12-03T23:50:47.292Z,98907.93
2022-12-03T23:55:54.207Z,98903.36
